Time,TemperatureF,DewpointF,PressureIn,WindDirection,WindDirectionDegrees,WindSpeedMPH,WindSpeedGustMPH,Humidity,HourlyPrecipIn,Conditions,Clouds,dailyrainin,SoftwareType,DateUTC
2013-09-24 00:04:00,60.0,57.0,29.84,NE,55,0.0,2.0,90,0.00,,,0.00,weatherlink.com 1.10,2013-09-24 07:04:00,
2013-09-24 00:19:00,59.5,57.0,29.84,NE,55,1.0,2.0,91,0.00,,,0.00,weatherlink.com 1.10,2013-09-24 07:19:00,
2013-09-24 00:34:00,59.1,57.0,29.84,NE,55,0.0,0.0,92,0.00,,,0.00,weatherlink.com 1.10,2013-09-24 07:34:00,
2013-09-24 00:49:00,58.7,57.0,29.84,NNE,15,2.0,3.0,94,0.00,,,0.00,weatherlink.com 1.10,2013-09-24 07:49:00,
2013-09-24 01:04:00,58.8,57.0,29.84,NNE,14,1.0,3.0,92,0.00,,,0.00,weatherlink.com 1.10,2013-09-24 08:04:00,
2013-09-24 01:19:00,58.6,56.0,29.84,NNE,14,1.0,2.0,92,0.00,,,0.00,weatherlink.com 1.10,2013-09-24 08:19:00,
2013-09-24 01:34:00,58.2,56.0,29.84,NNE,14,0.0,2.0,92,0.00,,,0.00,weatherlink.com 1.10,2013-09-24 08:34:00,
2013-09-24 01:49:00,58.1,56.0,29.84,NE,39,1.0,3.0,94,0.00,,,0.00,weatherlink.com 1.10,2013-09-24 08:49:00,
2013-09-24 02:04:00,58.2,56.0,29.84,NE,39,2.0,2.0,93,0.00,,,0.00,weatherlink.com 1.10,2013-09-24 09:04:00,
2013-09-24 02:19:00,58.2,56.0,29.84,NE,42,2.0,3.0,92,0.00,,,0.00,weatherlink.com 1.10,2013-09-24 09:19:00,
2013-09-24 02:34:00,58.1,56.0,29.84,NE,42,1.0,2.0,91,0.00,,,0.00,weatherlink.com 1.10,2013-09-24 09:34:00,
2013-09-24 02:49:00,57.7,55.0,29.84,NE,37,2.0,3.0,91,0.00,,,0.00,weatherlink.com 1.10,2013-09-24 09:49:00,
2013-09-24 03:04:00,57.4,55.0,29.83,NE,35,1.0,3.0,92,0.00,,,0.00,weatherlink.com 1.10,2013-09-24 10:04:00,
2013-09-24 03:19:00,57.2,55.0,29.83,NE,38,2.0,3.0,92,0.00,,,0.00,weatherlink.com 1.10,2013-09-24 10:19:00,
2013-09-24 03:34:00,57.3,55.0,29.83,NE,38,1.0,2.0,91,0.00,,,0.00,weatherlink.com 1.10,2013-09-24 10:34:00,
2013-09-24 03:49:00,56.9,54.0,29.83,NE,38,0.0,2.0,91,0.00,,,0.00,weatherlink.com 1.10,2013-09-24 10:49:00,
2013-09-24 04:04:00,56.5,54.0,29.83,NE,55,1.0,2.0,92,0.00,,,0.00,weatherlink.com 1.10,2013-09-24 11:04:00,
2013-09-24 04:19:00,56.2,54.0,29.83,NE,38,0.0,2.0,93,0.00,,,0.00,weatherlink.com 1.10,2013-09-24 11:19:00,
2013-09-24 04:34:00,55.9,54.0,29.83,NE,56,1.0,2.0,93,0.00,,,0.00,weatherlink.com 1.10,2013-09-24 11:34:00,
2013-09-24 04:49:00,55.8,54.0,29.83,East,92,0.0,3.0,93,0.00,,,0.00,weatherlink.com 1.10,2013-09-24 11:49:00,
2013-09-24 05:04:00,55.7,54.0,29.84,NE,37,2.0,3.0,93,0.00,,,0.00,weatherlink.com 1.10,2013-09-24 12:04:00,
2013-09-24 05:19:00,55.5,54.0,29.84,NE,46,1.0,3.0,93,0.00,,,0.00,weatherlink.com 1.10,2013-09-24 12:19:00,
2013-09-24 05:34:00,55.3,54.0,29.84,NE,35,0.0,4.0,94,0.00,,,0.00,weatherlink.com 1.10,2013-09-24 12:34:00,
2013-09-24 05:49:00,56.0,54.0,29.84,NE,40,2.0,4.0,93,0.00,,,0.00,weatherlink.com 1.10,2013-09-24 12:49:00,
2013-09-24 06:04:00,55.8,54.0,29.84,ENE,67,1.0,4.0,92,0.00,,,0.00,weatherlink.com 1.10,2013-09-24 13:04:00,
2013-09-24 06:20:00,55.7,54.0,29.84,SSW,200,0.0,2.0,93,0.00,,,0.00,weatherlink.com 1.10,2013-09-24 13:20:00,
2013-09-24 06:35:00,55.4,54.0,29.85,SSE,157,1.0,2.0,93,0.00,,,0.00,weatherlink.com 1.10,2013-09-24 13:35:00,
2013-09-24 06:50:00,55.3,53.0,29.85,ENE,69,1.0,3.0,93,0.00,,,0.00,weatherlink.com 1.10,2013-09-24 13:50:00,
2013-09-24 07:05:00,55.2,53.0,29.86,East,94,0.0,3.0,93,0.00,,,0.00,weatherlink.com 1.10,2013-09-24 14:05:00,
2013-09-24 07:20:00,55.5,54.0,29.86,NNE,15,1.0,3.0,93,0.00,,,0.00,weatherlink.com 1.10,2013-09-24 14:20:00,
2013-09-24 07:35:00,55.6,53.0,29.86,NE,36,0.0,3.0,92,0.00,,,0.00,weatherlink.com 1.10,2013-09-24 14:35:00,
2013-09-24 07:50:00,55.9,54.0,29.86,NE,36,1.0,2.0,93,0.00,,,0.00,weatherlink.com 1.10,2013-09-24 14:50:00,
2013-09-24 08:05:00,56.9,55.0,29.86,East,81,0.0,4.0,92,0.00,,,0.00,weatherlink.com 1.10,2013-09-24 15:05:00,
2013-09-24 08:20:00,58.0,56.0,29.87,East,86,0.0,2.0,92,0.00,,,0.00,weatherlink.com 1.10,2013-09-24 15:20:00,
2013-09-24 08:35:00,59.1,57.0,29.86,WSW,254,0.0,2.0,92,0.00,,,0.00,weatherlink.com 1.10,2013-09-24 15:35:00,
2013-09-24 08:50:00,60.6,57.0,29.86,NNE,13,1.0,3.0,89,0.00,,,0.00,weatherlink.com 1.10,2013-09-24 15:50:00,
2013-09-24 09:05:00,61.8,57.0,29.87,SW,229,0.0,3.0,85,0.00,,,0.00,weatherlink.com 1.10,2013-09-24 16:05:00,
2013-09-24 09:20:00,62.9,57.0,29.87,ENE,59,2.0,3.0,82,0.00,,,0.00,weatherlink.com 1.10,2013-09-24 16:20:00,
2013-09-24 09:35:00,63.8,57.0,29.87,WNW,284,0.0,2.0,79,0.00,,,0.00,weatherlink.com 1.10,2013-09-24 16:35:00,
2013-09-24 09:51:00,64.3,57.0,29.87,SSW,211,2.0,4.0,77,0.00,,,0.00,weatherlink.com 1.10,2013-09-24 16:51:00,
2013-09-24 10:05:00,63.8,56.0,29.88,SW,223,2.0,10.0,77,0.00,,,0.00,weatherlink.com 1.10,2013-09-24 17:05:00,
2013-09-24 10:20:00,64.6,57.0,29.88,SSW,213,3.0,14.0,75,0.00,,,0.00,weatherlink.com 1.10,2013-09-24 17:20:00,
2013-09-24 10:35:00,65.8,57.0,29.88,SSW,210,5.0,8.0,74,0.00,,,0.00,weatherlink.com 1.10,2013-09-24 17:35:00,
2013-09-24 10:50:00,67.1,56.0,29.88,SW,219,11.0,12.0,67,0.00,,,0.00,weatherlink.com 1.10,2013-09-24 17:50:00,
2013-09-24 11:05:00,67.9,55.0,29.88,SSW,212,7.0,8.0,63,0.00,,,0.00,weatherlink.com 1.10,2013-09-24 18:05:00,
2013-09-24 11:20:00,67.3,56.0,29.88,WSW,248,2.0,16.0,68,0.00,,,0.00,weatherlink.com 1.10,2013-09-24 18:20:00,
2013-09-24 11:35:00,68.5,58.0,29.87,SW,221,4.0,10.0,69,0.00,,,0.00,weatherlink.com 1.10,2013-09-24 18:35:00,
2013-09-24 11:50:00,68.3,56.0,29.87,SSW,213,9.0,18.0,64,0.00,,,0.00,weatherlink.com 1.10,2013-09-24 18:50:00,
2013-09-24 12:05:00,68.2,55.0,29.87,SSW,207,8.0,16.0,63,0.00,,,0.00,weatherlink.com 1.10,2013-09-24 19:05:00,
2013-09-24 12:20:00,68.3,54.0,29.86,SW,218,12.0,20.0,60,0.00,,,0.00,weatherlink.com 1.10,2013-09-24 19:20:00,
2013-09-24 12:35:00,68.6,53.0,29.86,West,264,4.0,21.0,57,0.00,,,0.00,weatherlink.com 1.10,2013-09-24 19:35:00,
2013-09-24 12:50:00,68.9,52.0,29.86,SW,228,5.0,23.0,55,0.00,,,0.00,weatherlink.com 1.10,2013-09-24 19:50:00,
2013-09-24 13:05:00,69.4,54.0,29.86,SW,223,5.0,16.0,59,0.00,,,0.00,weatherlink.com 1.10,2013-09-24 20:05:00,
2013-09-24 13:20:00,69.9,55.0,29.86,SW,232,15.0,15.0,59,0.00,,,0.00,weatherlink.com 1.10,2013-09-24 20:20:00,
2013-09-24 13:35:00,70.2,54.0,29.84,SW,221,6.0,16.0,56,0.00,,,0.00,weatherlink.com 1.10,2013-09-24 20:35:00,
2013-09-24 13:50:00,70.7,54.0,29.84,WSW,237,5.0,13.0,55,0.00,,,0.00,weatherlink.com 1.10,2013-09-24 20:50:00,
2013-09-24 14:05:00,71.1,52.0,29.83,SW,227,13.0,15.0,51,0.00,,,0.00,weatherlink.com 1.10,2013-09-24 21:05:00,
2013-09-24 14:21:00,71.5,53.0,29.82,SSE,161,16.0,16.0,52,0.00,,,0.00,weatherlink.com 1.10,2013-09-24 21:21:00,
2013-09-24 14:36:00,72.9,54.0,29.81,WNW,297,2.0,11.0,51,0.00,,,0.00,weatherlink.com 1.10,2013-09-24 21:36:00,
2013-09-24 14:51:00,73.5,55.0,29.82,SSE,163,4.0,14.0,52,0.00,,,0.00,weatherlink.com 1.10,2013-09-24 21:51:00,
2013-09-24 15:06:00,72.8,55.0,29.81,SSW,211,7.0,15.0,54,0.00,,,0.00,weatherlink.com 1.10,2013-09-24 22:06:00,
2013-09-24 15:21:00,71.7,56.0,29.81,SSW,213,20.0,25.0,58,0.00,,,0.00,weatherlink.com 1.10,2013-09-24 22:21:00,
2013-09-24 15:36:00,71.3,56.0,29.81,SSW,211,2.0,21.0,58,0.00,,,0.00,weatherlink.com 1.10,2013-09-24 22:36:00,
2013-09-24 15:51:00,71.2,55.0,29.81,WSW,240,11.0,20.0,57,0.00,,,0.00,weatherlink.com 1.10,2013-09-24 22:51:00,
2013-09-24 16:06:00,71.2,54.0,29.80,South,186,3.0,15.0,55,0.00,,,0.00,weatherlink.com 1.10,2013-09-24 23:06:00,
2013-09-24 16:21:00,70.7,55.0,29.81,SW,233,2.0,16.0,57,0.00,,,0.00,weatherlink.com 1.10,2013-09-24 23:21:00,
2013-09-24 16:36:00,70.6,54.0,29.80,South,186,10.0,18.0,57,0.00,,,0.00,weatherlink.com 1.10,2013-09-24 23:36:00,
2013-09-24 16:51:00,69.7,56.0,29.80,WSW,237,13.0,19.0,61,0.00,,,0.00,weatherlink.com 1.10,2013-09-24 23:51:00,
2013-09-24 17:06:00,69.2,55.0,29.80,SSW,208,10.0,17.0,62,0.00,,,0.00,weatherlink.com 1.10,2013-09-25 00:06:00,
2013-09-24 17:21:00,68.4,55.0,29.80,SW,215,6.0,14.0,62,0.00,,,0.00,weatherlink.com 1.10,2013-09-25 00:21:00,
2013-09-24 17:36:00,67.7,55.0,29.80,SSW,209,11.0,17.0,64,0.00,,,0.00,weatherlink.com 1.10,2013-09-25 00:36:00,
2013-09-24 17:51:00,67.1,55.0,29.80,WSW,248,7.0,11.0,66,0.00,,,0.00,weatherlink.com 1.10,2013-09-25 00:51:00,
2013-09-24 18:06:00,66.5,55.0,29.79,SSW,208,7.0,10.0,67,0.00,,,0.00,weatherlink.com 1.10,2013-09-25 01:06:00,
2013-09-24 18:21:00,65.9,54.0,29.79,SSW,205,8.0,16.0,66,0.00,,,0.00,weatherlink.com 1.10,2013-09-25 01:21:00,
2013-09-24 18:36:00,65.2,54.0,29.79,SW,231,6.0,11.0,67,0.00,,,0.00,weatherlink.com 1.10,2013-09-25 01:36:00,
2013-09-24 18:51:00,64.1,54.0,29.79,SW,218,1.0,14.0,70,0.00,,,0.00,weatherlink.com 1.10,2013-09-25 01:51:00,
2013-09-24 19:06:00,63.2,54.0,29.80,SW,215,4.0,14.0,71,0.00,,,0.00,weatherlink.com 1.10,2013-09-25 02:06:00,
2013-09-24 19:21:00,62.6,53.0,29.79,SW,235,5.0,15.0,71,0.00,,,0.00,weatherlink.com 1.10,2013-09-25 02:21:00,
2013-09-24 19:36:00,62.1,53.0,29.79,SSW,213,7.0,14.0,72,0.00,,,0.00,weatherlink.com 1.10,2013-09-25 02:36:00,
2013-09-24 19:51:00,61.4,53.0,29.79,SW,215,8.0,16.0,73,0.00,,,0.00,weatherlink.com 1.10,2013-09-25 02:51:00,
2013-09-24 20:06:00,61.1,52.0,29.79,SW,221,8.0,11.0,72,0.00,,,0.00,weatherlink.com 1.10,2013-09-25 03:06:00,
2013-09-24 20:21:00,61.2,50.0,29.80,SSW,213,4.0,15.0,67,0.00,,,0.00,weatherlink.com 1.10,2013-09-25 03:21:00,
2013-09-24 20:37:00,61.3,49.0,29.80,SW,236,7.0,14.0,65,0.00,,,0.00,weatherlink.com 1.10,2013-09-25 03:37:00,
2013-09-24 20:51:00,61.2,49.0,29.80,SW,221,6.0,17.0,65,0.00,,,0.00,weatherlink.com 1.10,2013-09-25 03:51:00,
2013-09-24 21:06:00,60.9,49.0,29.80,SW,214,6.0,15.0,65,0.00,,,0.00,weatherlink.com 1.10,2013-09-25 04:06:00,
2013-09-24 21:21:00,60.7,49.0,29.81,SW,223,6.0,15.0,65,0.00,,,0.00,weatherlink.com 1.10,2013-09-25 04:21:00,
2013-09-24 21:36:00,60.3,50.0,29.82,SSW,213,4.0,16.0,68,0.00,,,0.00,weatherlink.com 1.10,2013-09-25 04:36:00,
2013-09-24 21:51:00,59.4,49.0,29.81,SW,214,4.0,12.0,69,0.00,,,0.00,weatherlink.com 1.10,2013-09-25 04:51:00,
2013-09-24 22:06:00,59.2,49.0,29.80,SW,234,4.0,12.0,69,0.00,,,0.00,weatherlink.com 1.10,2013-09-25 05:06:00,
2013-09-24 22:21:00,59.4,48.0,29.80,SSW,213,8.0,15.0,65,0.00,,,0.00,weatherlink.com 1.10,2013-09-25 05:21:00,
2013-09-24 22:36:00,59.4,48.0,29.81,SSW,208,4.0,15.0,65,0.00,,,0.00,weatherlink.com 1.10,2013-09-25 05:36:00,
2013-09-24 22:51:00,58.8,48.0,29.81,SSW,209,4.0,10.0,67,0.00,,,0.00,weatherlink.com 1.10,2013-09-25 05:51:00,
2013-09-24 23:06:00,58.6,48.0,29.81,SSW,213,3.0,9.0,69,0.00,,,0.00,weatherlink.com 1.10,2013-09-25 06:06:00,
2013-09-24 23:21:00,58.0,49.0,29.81,WSW,238,5.0,5.0,73,0.00,,,0.00,weatherlink.com 1.10,2013-09-25 06:21:00,
2013-09-24 23:36:00,57.7,49.0,29.81,SSW,212,2.0,8.0,73,0.00,,,0.00,weatherlink.com 1.10,2013-09-25 06:36:00,
2013-09-24 23:51:00,57.5,49.0,29.81,West,275,2.0,9.0,74,0.00,,,0.00,weatherlink.com 1.10,2013-09-25 06:51:00,